Time;durP1;ratioP1;P1;durP2;ratioP2;P2;SDS_P1;SDS_P2;PMS_P1;PMS_P2;Temp;Humidity;BMP_temperature;BMP_pressure;BME280_temperature;BME280_humidity;BME280_pressure;Samples;Min_cycle;Max_cycle;Signal;HPM_P1;HPM_P2
2023/04/03 00:00:32;;;;;;;6.38;2.83;;;3.20;99.90;;;2.26;100.00;97980.13;4967351;28;20522;-38
2023/04/03 00:02:58;;;;;;;3.47;2.20;;;3.10;99.90;;;2.30;100.00;97974.09;4965098;28;20018;-38
2023/04/03 00:05:24;;;;;;;4.82;2.20;;;3.10;99.90;;;2.23;100.00;97972.31;4965424;28;20493;-38
2023/04/03 00:07:50;;;;;;;3.90;2.50;;;3.10;99.90;;;2.21;100.00;97971.44;4967566;28;20026;-38
2023/04/03 00:10:16;;;;;;;2.97;2.22;;;3.10;99.90;;;2.14;100.00;97967.94;4967130;28;20042;-38
2023/04/03 00:12:42;;;;;;;4.68;2.42;;;3.00;99.90;;;2.10;100.00;97969.66;4970424;28;20061;-38
2023/04/03 00:15:08;;;;;;;5.13;2.55;;;3.00;99.90;;;2.10;100.00;97969.66;4969251;28;20574;-38
2023/04/03 00:17:34;;;;;;;5.35;2.60;;;2.90;99.90;;;2.07;100.00;97972.22;4968040;28;20059;-38
2023/04/03 00:20:00;;;;;;;2.97;2.20;;;2.90;99.90;;;2.14;100.00;97980.09;4968092;28;20755;-38
2023/04/03 00:22:28;;;;;;;4.32;2.17;;;3.00;99.90;;;2.13;100.00;97970.53;4971113;28;20081;-37
2023/04/03 00:24:54;;;;;;;5.13;2.40;;;3.00;99.90;;;2.12;100.00;97973.97;4971096;28;20552;-38
2023/04/03 00:27:20;;;;;;;3.85;2.15;;;3.00;99.90;;;2.18;100.00;97976.63;4969121;28;20037;-38
2023/04/03 00:29:46;;;;;;;2.55;1.90;;;3.00;99.90;;;2.19;100.00;97971.44;4971973;28;20026;-37
2023/04/03 00:32:12;;;;;;;4.05;2.20;;;3.00;99.90;;;2.22;100.00;97975.78;4969908;28;20502;-38
2023/04/03 00:34:38;;;;;;;4.28;2.40;;;3.00;99.90;;;2.17;100.00;97972.28;4972553;28;20033;-38
2023/04/03 00:37:03;;;;;;;4.60;2.33;;;3.00;99.90;;;2.14;100.00;97975.75;4971479;28;20034;-37
2023/04/03 00:39:29;;;;;;;3.42;2.38;;;3.00;99.90;;;2.17;100.00;97967.06;4972881;28;20498;-38
2023/04/03 00:41:55;;;;;;;3.85;2.42;;;3.00;99.90;;;2.19;100.00;97962.72;4972245;28;20038;-38
2023/04/03 00:44:32;;;;;;;4.95;2.58;;;3.00;99.90;;;2.15;100.00;97963.59;4967294;28;20541;-38
2023/04/03 00:46:59;;;;;;;6.63;2.47;;;3.00;99.90;;;2.12;100.00;97968.78;4961591;28;20037;-38
2023/04/03 00:49:26;;;;;;;3.33;2.42;;;3.00;99.90;;;2.14;100.00;97967.94;4976993;28;20069;-38
2023/04/03 00:51:52;;;;;;;3.80;2.55;;;3.00;99.90;;;2.17;100.00;97967.06;4963312;28;20034;-38
2023/04/03 00:54:18;;;;;;;4.15;2.33;;;3.00;99.90;;;2.11;100.00;97973.09;4976698;28;20050;-38
2023/04/03 00:56:45;;;;;;;3.92;2.25;;;3.00;99.90;;;2.03;100.00;97954.00;4982510;28;20100;-38
2023/04/03 00:59:21;;;;;;;3.60;2.40;;;3.00;99.90;;;2.09;100.00;97969.63;4984219;28;20093;-38
2023/04/03 01:01:48;;;;;;;6.57;2.45;;;2.90;99.90;;;2.10;100.00;97968.78;4972541;28;20143;-37
2023/04/03 01:04:41;;;;;;;4.90;2.70;;;2.90;99.90;;;2.12;100.00;97973.97;4972255;28;20042;-38
2023/04/03 01:07:21;;;;;;;3.63;2.17;;;2.90;99.90;;;2.15;100.00;97972.25;4967890;28;20117;-38
2023/04/03 01:09:50;;;;;;;4.97;2.70;;;2.90;99.90;;;2.16;100.00;97967.94;4976579;28;20065;-38
2023/04/03 01:12:23;;;;;;;4.65;2.28;;;2.90;99.90;;;2.17;100.00;97967.06;4973834;28;20299;-38
2023/04/03 01:14:55;;;;;;;6.35;2.65;;;3.00;99.90;;;2.11;100.00;97965.31;4967488;28;20513;-38
2023/04/03 01:17:33;;;;;;;;;;;2.90;99.90;;;2.07;100.00;97967.03;4966653;28;20103;-37
2023/04/03 01:20:28;;;;;;;3.25;2.30;;;2.90;99.90;;;2.06;100.00;97967.00;4970569;28;19953;-38
2023/04/03 01:23:09;;;;;;;4.13;2.55;;;2.90;99.90;;;2.04;100.00;97960.94;4950448;28;20096;-38
2023/04/03 01:25:44;;;;;;;3.10;2.33;;;2.90;99.90;;;2.01;100.00;97959.19;4970854;28;20034;-38
2023/04/03 01:28:25;;;;;;;4.00;2.15;;;2.90;99.90;;;1.97;100.00;97956.53;4970570;28;20596;-38
2023/04/03 01:31:00;;;;;;;3.28;2.30;;;2.80;99.90;;;1.94;100.00;97967.81;4971904;28;20074;-38
2023/04/03 01:33:26;;;;;;;4.90;2.33;;;2.80;99.90;;;1.92;100.00;97966.94;4987216;28;20033;-38
2023/04/03 01:35:52;;;;;;;3.20;2.28;;;2.80;99.90;;;1.91;100.00;97960.84;4972574;28;20034;-37
2023/04/03 01:38:18;;;;;;;3.97;2.80;;;2.80;99.90;;;1.91;100.00;97965.19;4970318;28;20065;-37
2023/04/03 01:40:43;;;;;;;5.88;2.83;;;2.80;99.90;;;1.88;100.00;97959.94;4973399;28;20198;-37
2023/04/03 01:43:09;;;;;;;5.97;2.90;;;2.80;99.90;;;1.92;100.00;97966.94;4974278;28;20026;-37
2023/04/03 01:45:35;;;;;;;4.43;1.92;;;2.80;99.90;;;1.90;100.00;97969.53;4973194;28;20018;-38
2023/04/03 01:48:01;;;;;;;4.90;2.40;;;2.80;99.90;;;1.87;100.00;97971.25;4965394;28;20167;-38
2023/04/03 01:50:27;;;;;;;5.32;2.50;;;2.80;99.90;;;1.96;100.00;97967.84;4963464;28;20358;-38
2023/04/03 01:52:52;;;;;;;3.88;2.20;;;2.80;99.90;;;1.97;100.00;97962.63;4971880;28;20479;-38
2023/04/03 01:55:18;;;;;;;5.22;2.20;;;2.80;99.90;;;1.76;100.00;97931.25;4969588;28;20089;-38
2023/04/03 01:57:44;;;;;;;4.72;2.30;;;2.80;99.90;;;1.75;100.00;97946.00;4973612;28;20499;-38
2023/04/03 02:00:10;;;;;;;3.38;2.10;;;2.80;99.90;;;1.85;100.00;97971.22;4965108;28;20414;-38
2023/04/03 02:02:36;;;;;;;8.75;2.65;;;2.70;99.90;;;1.91;100.00;97966.03;4975849;28;20061;-38
2023/04/03 02:05:01;;;;;;;4.80;2.63;;;2.80;99.90;;;1.87;100.00;97966.03;4977847;28;20027;-37
2023/04/03 02:07:27;;;;;;;3.20;2.47;;;2.80;99.90;;;1.89;100.00;97965.16;4970503;28;20265;-38
2023/04/03 02:09:53;;;;;;;4.55;2.13;;;2.70;99.90;;;1.90;100.00;97973.84;4977453;28;20038;-38
2023/04/03 02:12:18;;;;;;;3.28;2.05;;;2.70;99.90;;;1.76;100.00;97947.75;4979229;28;20108;-38
2023/04/03 02:14:45;;;;;;;4.15;2.40;;;2.80;99.90;;;1.71;100.00;97942.50;4979433;28;20124;-38
2023/04/03 02:17:10;;;;;;;4.38;2.42;;;2.80;99.90;;;1.91;100.00;97970.38;4972531;28;20551;-38
2023/04/03 02:19:36;;;;;;;5.60;2.58;;;2.80;99.90;;;1.99;100.00;97967.81;4976505;28;20066;-38
2023/04/03 02:22:04;;;;;;;3.00;2.10;;;2.90;99.90;;;1.99;100.00;97973.03;4981879;28;20088;-38
2023/04/03 02:24:31;;;;;;;2.90;2.22;;;2.80;99.90;;;1.97;100.00;97972.16;4973429;28;20556;-38
2023/04/03 02:26:57;;;;;;;3.35;2.35;;;2.80;99.90;;;1.95;100.00;97969.53;4979454;28;20023;-38
2023/04/03 02:29:23;;;;;;;4.13;2.17;;;2.80;99.90;;;1.96;100.00;97973.03;4973974;28;20035;-38
2023/04/03 02:31:50;;;;;;;4.47;2.33;;;2.80;99.90;;;1.93;100.00;97979.06;4971514;28;20101;-38
2023/04/03 02:34:16;;;;;;;3.45;2.25;;;2.80;99.90;;;1.98;100.00;97969.56;4971754;28;20266;-38
2023/04/03 02:36:42;;;;;;;7.10;2.60;;;2.90;99.90;;;2.00;100.00;97978.25;4974055;28;20053;-38
2023/04/03 02:39:08;;;;;;;4.40;2.72;;;2.80;99.90;;;2.02;100.00;97973.06;4975745;28;20026;-38
2023/04/03 02:41:35;;;;;;;4.13;2.47;;;2.90;99.90;;;2.05;100.00;97979.16;4973606;28;20034;-38
2023/04/03 02:44:06;;;;;;;5.28;2.45;;;2.90;99.90;;;1.95;100.00;97955.66;4976714;28;20030;-38
2023/04/03 02:46:32;;;;;;;4.53;2.30;;;2.90;99.90;;;2.05;100.00;97978.28;4975666;28;20030;-38
2023/04/03 02:48:58;;;;;;;3.53;2.30;;;2.90;99.90;;;2.12;100.00;97973.97;4973308;28;20061;-38
2023/04/03 02:51:24;;;;;;;3.78;2.40;;;2.90;99.90;;;2.04;100.00;97974.78;4973095;28;20042;-38
2023/04/03 02:53:50;;;;;;;4.18;2.45;;;2.90;99.90;;;2.08;100.00;97978.28;4973473;28;20038;-38
2023/04/03 02:56:17;;;;;;;4.05;2.20;;;3.00;99.90;;;2.09;100.00;97978.28;4976309;28;20514;-38
2023/04/03 02:58:44;;;;;;;2.97;1.83;;;3.00;99.90;;;2.12;100.00;97979.16;4975715;28;20109;-38
2023/04/03 03:01:10;;;;;;;4.05;2.30;;;2.90;99.90;;;2.13;100.00;97978.31;4971639;28;20158;-38
2023/04/03 03:03:35;;;;;;;3.97;2.30;;;3.00;99.90;;;2.10;100.00;97980.06;4971566;28;20107;-38
2023/04/03 03:06:07;;;;;;;4.03;2.03;;;3.00;99.90;;;2.10;100.00;97976.59;4981625;28;20066;-38
2023/04/03 03:08:34;;;;;;;3.88;2.17;;;2.90;99.90;;;2.10;100.00;97980.06;4973945;28;20109;-38
2023/04/03 03:11:00;;;;;;;3.20;2.30;;;3.00;99.90;;;2.13;100.00;97970.53;4975534;28;20073;-38
2023/04/03 03:13:26;;;;;;;4.25;2.20;;;3.00;99.90;;;2.17;100.00;97978.38;4977945;28;20065;-38
2023/04/03 03:15:52;;;;;;;5.75;2.50;;;3.00;99.90;;;2.13;100.00;97976.59;4971832;28;20073;-38
2023/04/03 03:18:18;;;;;;;2.75;1.67;;;3.00;99.90;;;2.16;100.00;97974.00;4977233;28;20133;-38
2023/04/03 03:20:44;;;;;;;3.22;2.00;;;3.00;99.90;;;2.15;100.00;97971.41;4967036;28;20118;-38
2023/04/03 03:23:10;;;;;;;2.97;2.30;;;3.00;99.90;;;2.12;100.00;97964.44;4965320;28;20408;-38
2023/04/03 03:25:40;;;;;;;3.30;2.10;;;3.00;99.90;;;2.08;100.00;97949.66;4970051;28;20124;-38
2023/04/03 03:28:05;;;;;;;4.25;2.10;;;3.00;99.90;;;2.18;100.00;97974.88;4975151;28;20033;-38
2023/04/03 03:30:31;;;;;;;3.78;2.20;;;3.00;99.90;;;2.24;100.00;97974.03;4975651;28;20034;-38
2023/04/03 03:32:57;;;;;;;3.53;2.00;;;3.10;99.90;;;2.22;100.00;97965.34;4975045;28;20947;-38
2023/04/03 03:35:22;;;;;;;4.68;1.98;;;3.10;99.90;;;2.20;100.00;97956.69;4974262;28;20030;-38
2023/04/03 03:37:48;;;;;;;3.80;2.05;;;3.10;99.90;;;2.17;100.00;97951.44;4987960;28;20053;-38
2023/04/03 03:40:14;;;;;;;2.83;2.20;;;3.10;99.90;;;2.20;100.00;97961.88;4971879;28;20097;-38
2023/04/03 03:42:40;;;;;;;3.33;2.22;;;3.10;99.90;;;2.22;100.00;97961.03;4966579;28;20034;-38
2023/04/03 03:45:06;;;;;;;5.88;2.38;;;3.10;99.90;;;2.26;100.00;97955.00;4966247;28;20041;-38
2023/04/03 03:47:32;;;;;;;5.45;2.15;;;3.10;99.90;;;2.28;100.00;97955.88;4982076;28;20034;-38
2023/04/03 03:49:58;;;;;;;3.55;1.80;;;3.10;99.90;;;2.27;100.00;97961.91;4974149;28;20034;-38
2023/04/03 03:52:24;;;;;;;3.15;1.95;;;3.10;99.90;;;2.28;100.00;97961.06;4969125;28;20286;-38
2023/04/03 03:54:49;;;;;;;4.18;1.95;;;3.10;99.90;;;2.08;100.00;97928.84;4970824;28;20503;-38
2023/04/03 03:57:15;;;;;;;4.68;2.05;;;3.10;99.90;;;2.29;100.00;97967.13;4973770;28;20037;-38
2023/04/03 03:59:41;;;;;;;3.60;1.95;;;3.10;99.90;;;2.25;100.00;97960.19;4973918;28;20039;-38
2023/04/03 04:02:08;;;;;;;3.03;2.10;;;3.20;99.90;;;2.29;100.00;97961.94;4970628;28;20033;-38
2023/04/03 04:04:34;;;;;;;4.70;2.40;;;3.10;99.90;;;2.27;100.00;97961.91;4963777;28;20030;-38
2023/04/03 04:07:00;;;;;;;3.75;2.33;;;3.20;99.90;;;2.26;100.00;97967.09;4974544;28;20478;-38
2023/04/03 04:09:26;;;;;;;4.63;2.35;;;3.10;99.90;;;2.26;100.00;97959.31;4974791;28;20311;-38
2023/04/03 04:11:53;;;;;;;4.07;2.38;;;3.10;99.90;;;2.30;100.00;97971.50;4968118;28;20026;-38
2023/04/03 04:14:20;;;;;;;4.93;2.17;;;3.10;99.90;;;2.32;100.00;97972.38;4969361;28;20033;-38
2023/04/03 04:16:47;;;;;;;3.55;2.10;;;3.20;99.90;;;2.35;100.00;97971.50;4975327;28;20386;-38
2023/04/03 04:19:13;;;;;;;4.28;1.98;;;3.20;99.90;;;2.37;100.00;97970.66;4972562;28;20544;-38
2023/04/03 04:21:39;;;;;;;2.17;1.88;;;3.20;99.90;;;2.32;100.00;97974.09;4984587;28;20026;-38
2023/04/03 04:24:06;;;;;;;1.95;1.75;;;3.20;99.90;;;2.28;100.00;97966.28;4968774;28;20053;-38
2023/04/03 04:26:31;;;;;;;4.20;2.25;;;3.20;99.90;;;2.29;100.00;97970.59;4972764;28;20034;-38
2023/04/03 04:28:57;;;;;;;3.33;1.90;;;3.20;99.90;;;2.29;100.00;97972.34;4965308;28;20042;-38
2023/04/03 04:31:23;;;;;;;3.67;2.22;;;3.20;99.90;;;2.33;100.00;97974.09;4970145;28;20038;-38
2023/04/03 04:33:49;;;;;;;3.15;2.00;;;3.20;99.90;;;2.35;100.00;97972.38;4970427;28;20062;-38
2023/04/03 04:36:14;;;;;;;3.38;2.03;;;3.20;99.90;;;2.36;100.00;97971.50;4976366;28;20129;-38
2023/04/03 04:38:41;;;;;;;3.60;2.20;;;3.20;99.90;;;2.36;100.00;97978.47;4974140;28;20442;-38
2023/04/03 04:41:07;;;;;;;2.50;1.80;;;3.20;99.90;;;2.37;100.00;97981.06;4962699;28;20038;-38
2023/04/03 04:43:33;;;;;;;3.10;1.95;;;3.20;99.90;;;2.23;100.00;97944.56;4964953;28;20529;-38
2023/04/03 04:46:05;;;;;;;6.32;2.30;;;3.30;99.90;;;2.41;100.00;97985.41;4968156;28;20381;-38
2023/04/03 04:48:30;;;;;;;4.03;1.90;;;3.30;99.90;;;2.38;100.00;97972.38;4975889;28;20498;-38
2023/04/03 04:50:56;;;;;;;3.33;1.98;;;3.20;99.90;;;2.31;100.00;97968.00;4971534;28;20101;-38
2023/04/03 04:53:22;;;;;;;5.90;2.05;;;3.20;99.90;;;2.27;100.00;97972.31;4975916;28;20483;-38
2023/04/03 04:55:48;;;;;;;4.05;1.80;;;3.20;99.90;;;2.27;100.00;97974.94;4970731;28;20481;-38
2023/04/03 04:58:14;;;;;;;3.67;2.00;;;3.10;99.90;;;2.26;100.00;97970.59;4973045;28;20359;-38
2023/04/03 05:00:39;;;;;;;3.45;1.95;;;3.10;99.90;;;2.34;100.00;97975.84;4968473;28;20042;-37
2023/04/03 05:03:05;;;;;;;2.25;1.83;;;3.20;99.90;;;2.36;99.95;97975.84;4963494;28;20494;-38
2023/04/03 05:05:31;;;;;;;2.65;1.95;;;3.20;99.90;;;2.37;97.92;97986.28;4970193;28;20542;-38
2023/04/03 05:07:57;;;;;;;2.35;1.55;;;3.20;99.90;;;2.39;98.41;97994.09;4967741;28;20044;-38
2023/04/03 05:10:23;;;;;;;5.20;1.63;;;3.20;99.90;;;2.44;95.21;98000.16;4969109;28;20038;-38
2023/04/03 05:12:48;;;;;;;4.55;1.88;;;3.30;99.90;;;2.48;92.64;98002.81;4973198;28;20088;-38
2023/04/03 05:15:14;;;;;;;3.10;2.08;;;3.30;99.90;;;2.48;94.34;97995.00;4961018;28;20030;-38
2023/04/03 05:17:40;;;;;;;3.65;2.20;;;3.30;99.90;;;2.53;93.78;97995.03;4964796;28;20498;-38
2023/04/03 05:20:06;;;;;;;2.00;1.80;;;3.30;99.90;;;2.54;94.20;98003.72;4963601;28;20038;-37
2023/04/03 05:22:32;;;;;;;4.60;2.28;;;3.40;99.90;;;2.55;92.55;98008.03;4970855;28;20034;-38
2023/04/03 05:24:58;;;;;;;3.42;2.10;;;3.40;99.90;;;2.60;93.71;98011.53;4958121;28;20050;-38
2023/04/03 05:27:24;;;;;;;2.55;1.67;;;3.40;99.90;;;2.56;97.19;98005.44;4963730;28;20027;-38
2023/04/03 05:29:50;;;;;;;4.35;1.85;;;3.40;99.90;;;2.62;95.90;98012.41;4956873;28;20034;-38
2023/04/03 05:32:16;;;;;;;2.47;2.00;;;3.40;99.90;;;2.54;96.14;98001.97;4970182;28;20038;-38
2023/04/03 05:34:42;;;;;;;3.75;1.90;;;3.40;99.90;;;2.55;95.56;98010.63;4975728;28;20394;-38
2023/04/03 05:37:08;;;;;;;2.75;1.88;;;3.40;99.90;;;2.60;96.40;98012.44;4992070;28;20092;-37
2023/04/03 05:39:33;;;;;;;3.33;1.85;;;3.40;99.90;;;2.63;94.63;98009.81;4982677;28;20568;-39
2023/04/03 05:42:00;;;;;;;3.60;2.17;;;3.50;99.90;;;2.66;93.81;98008.97;4991299;28;20042;-37
2023/04/03 05:44:25;;;;;;;3.35;1.83;;;3.50;99.90;;;2.80;92.64;98014.22;4982926;28;20061;-38
2023/04/03 05:46:51;;;;;;;3.20;1.70;;;3.60;99.90;;;2.66;93.43;98006.38;4982279;28;20073;-38
2023/04/03 05:49:17;;;;;;;3.13;1.83;;;3.60;99.90;;;2.66;93.97;98008.97;4979789;28;20041;-37
2023/04/03 05:51:44;;;;;;;2.85;1.80;;;3.60;99.90;;;2.77;92.09;98017.69;4983585;28;20037;-38
2023/04/03 05:54:19;;;;;;;5.30;1.80;;;3.60;99.90;;;2.68;91.00;98020.25;4982828;28;20422;-38
2023/04/03 05:56:45;;;;;;;3.15;2.08;;;3.60;99.90;;;2.63;95.12;98030.66;4979090;28;20030;-38
2023/04/03 05:59:10;;;;;;;4.25;2.17;;;3.50;99.90;;;2.68;94.89;98022.88;4981288;28;20536;-38
2023/04/03 06:01:37;;;;;;;6.55;2.13;;;3.50;99.90;;;2.74;94.09;98030.69;4982853;28;20392;-38
2023/04/03 06:04:03;;;;;;;3.95;1.92;;;3.60;99.90;;;2.75;92.94;98024.63;4978173;28;20022;-38
2023/04/03 06:06:53;;;;;;;3.10;1.80;;;3.60;99.90;;;2.89;91.06;98029.91;4979999;28;20026;-38
2023/04/03 06:09:23;;;;;;;2.80;2.00;;;3.70;99.90;;;2.80;89.93;98024.63;4978220;28;20026;-37
2023/04/03 06:11:49;;;;;;;3.10;1.88;;;3.70;99.90;;;2.80;90.96;98032.44;4974708;28;20026;-38
2023/04/03 06:14:15;;;;;;;2.35;1.80;;;3.70;99.90;;;2.86;90.75;98033.34;4980807;28;20034;-38
2023/04/03 06:16:41;;;;;;;3.42;1.92;;;3.70;99.90;;;2.94;88.24;98024.69;4984174;28;20046;-38
2023/04/03 06:19:10;;;;;;;3.38;1.90;;;3.80;99.90;;;2.95;89.93;98029.91;4980593;28;20026;-38
2023/04/03 06:21:36;;;;;;;4.00;2.00;;;3.90;99.90;;;3.03;88.93;98045.56;4981296;28;20125;-38
2023/04/03 06:24:07;;;;;;;4.63;1.80;;;3.90;99.90;;;3.11;88.04;98043.88;4978749;28;20482;-38
2023/04/03 06:26:34;;;;;;;4.05;1.77;;;3.90;99.90;;;3.07;89.34;98039.53;4974982;28;20037;-38
2023/04/03 06:28:59;;;;;;;3.30;1.90;;;4.00;99.90;;;3.00;91.10;98043.84;4977467;28;20030;-38
2023/04/03 06:31:25;;;;;;;6.88;1.90;;;4.00;99.90;;;3.11;89.51;98050.81;4974194;28;20517;-38
2023/04/03 06:33:51;;;;;;;3.83;2.25;;;4.10;99.90;;;3.07;90.65;98044.75;4976000;28;20429;-38
2023/04/03 06:36:20;;;;;;;2.88;1.88;;;4.00;99.90;;;3.12;88.86;98047.34;4981505;28;20034;-37
2023/04/03 06:38:46;;;;;;;5.00;2.08;;;4.10;99.90;;;3.19;89.51;98044.75;4974318;28;20413;-38
2023/04/03 06:41:12;;;;;;;3.65;2.10;;;4.10;99.90;;;3.21;90.22;98043.03;4978840;28;20557;-38
2023/04/03 06:43:38;;;;;;;4.30;1.80;;;4.20;99.90;;;3.34;89.90;98043.94;4980691;28;20038;-38
2023/04/03 06:46:04;;;;;;;3.90;1.77;;;4.20;99.90;;;3.50;90.35;98050.06;4977510;28;20494;-38
2023/04/03 06:48:30;;;;;;;3.38;1.90;;;4.40;99.90;;;3.46;89.46;98039.59;4980514;28;20023;-38
2023/04/03 06:50:56;;;;;;;4.53;2.30;;;4.40;99.90;;;3.49;88.75;98050.91;4979580;28;20088;-38
2023/04/03 06:53:22;;;;;;;4.85;2.20;;;4.40;99.90;;;3.53;86.63;98052.66;4981257;28;20038;-38
2023/04/03 06:55:48;;;;;;;3.75;2.10;;;4.50;99.90;;;3.47;88.46;98038.75;4978021;28;20533;-38
2023/04/03 06:58:15;;;;;;;4.40;2.30;;;4.50;99.90;;;3.39;89.26;98044.81;4979779;28;20034;-38
2023/04/03 07:00:41;;;;;;;4.47;2.42;;;4.40;99.90;;;3.36;89.99;98052.63;4977167;28;20050;-38
2023/04/03 07:03:07;;;;;;;3.20;2.00;;;4.40;99.90;;;3.38;88.03;98053.50;4975438;28;20545;-38
2023/04/03 07:05:33;;;;;;;7.72;2.10;;;4.40;99.90;;;3.47;90.18;98062.22;4979347;28;20069;-38
2023/04/03 07:07:58;;;;;;;3.15;2.17;;;4.40;99.90;;;3.63;88.47;98062.22;4982529;28;20334;-36
2023/04/03 07:10:24;;;;;;;4.30;2.22;;;4.50;99.90;;;3.68;87.40;98057.03;4977263;28;20029;-38
2023/04/03 07:12:50;;;;;;;8.05;3.17;;;4.60;99.90;;;3.69;89.20;98060.50;4977276;28;20030;-38
2023/04/03 07:15:16;;;;;;;3.03;1.88;;;4.60;99.90;;;3.73;89.66;98060.53;4978515;28;20053;-38
2023/04/03 07:17:42;;;;;;;6.00;1.92;;;4.70;99.90;;;3.94;87.26;98067.47;4976350;28;20031;-38
2023/04/03 07:20:08;;;;;;;4.28;2.30;;;4.80;99.90;;;3.95;87.38;98063.13;4978910;28;20031;-38
2023/04/03 07:22:34;;;;;;;5.10;2.30;;;4.90;99.90;;;3.91;86.89;98062.28;4977947;28;20030;-38
2023/04/03 07:25:00;;;;;;;5.30;2.20;;;5.00;99.90;;;3.85;88.32;98071.81;4978381;28;20228;-38
2023/04/03 07:27:26;;;;;;;8.32;2.00;;;5.00;99.90;;;4.14;87.41;98066.59;4981758;28;20026;-38
2023/04/03 07:29:52;;;;;;;5.55;2.25;;;5.10;99.90;;;4.23;84.87;98070.94;4976691;28;20034;-38
2023/04/03 07:32:18;;;;;;;7.18;2.45;;;5.20;99.90;;;4.32;86.08;98070.94;4979961;28;20466;-38
2023/04/03 07:34:44;;;;;;;4.88;2.40;;;5.30;99.90;;;4.34;86.91;98064.84;4974973;28;20034;-38
2023/04/03 07:37:10;;;;;;;4.65;2.00;;;5.40;99.90;;;4.52;82.67;98074.41;4979674;28;20492;-38
2023/04/03 07:39:36;;;;;;;4.07;2.10;;;5.40;99.90;;;4.36;81.92;98076.16;4977920;28;20306;-38
2023/04/03 07:42:02;;;;;;;3.88;2.05;;;5.40;99.90;;;4.54;82.90;98083.09;4979073;28;20687;-38
2023/04/03 07:44:28;;;;;;;5.45;2.30;;;5.50;99.90;;;4.60;80.83;98082.22;4977115;28;20049;-37
2023/04/03 07:46:57;;;;;;;2.15;1.67;;;5.60;99.90;;;4.78;80.08;98083.91;4970264;28;20027;-38
2023/04/03 07:49:25;;;;;;;3.55;2.17;;;5.70;99.90;;;4.85;79.94;98079.53;4976517;28;20081;-38
2023/04/03 07:51:52;;;;;;;3.97;2.10;;;5.80;99.90;;;5.08;80.59;98088.16;4973712;28;20050;-38
2023/04/03 07:54:18;;;;;;;3.83;2.00;;;5.90;99.90;;;4.83;79.63;98089.09;4980188;28;20202;-38
2023/04/03 07:56:44;;;;;;;4.93;2.20;;;6.00;99.90;;;4.82;79.35;98093.47;4977850;28;20541;-38
2023/04/03 07:59:11;;;;;;;3.97;2.20;;;5.90;99.90;;;4.95;79.11;98095.19;4977029;28;20374;-38
2023/04/03 08:01:36;;;;;;;3.45;2.08;;;6.00;99.90;;;5.05;79.85;98089.91;4977957;28;20042;-38
2023/04/03 08:04:02;;;;;;;3.47;2.20;;;6.00;99.90;;;5.03;78.34;98099.50;4990556;28;20475;-38
2023/04/03 08:06:34;;;;;;;3.67;2.15;;;6.10;99.90;;;5.32;77.73;98091.53;4979456;28;20026;-38
2023/04/03 08:09:00;;;;;;;2.80;2.13;;;6.20;99.90;;;5.25;77.71;98092.44;4980265;28;20029;-38
2023/04/03 08:11:26;;;;;;;4.97;2.20;;;6.20;99.90;;;5.30;78.76;98102.00;4980099;28;20034;-38
2023/04/03 08:13:52;;;;;;;4.25;1.70;;;6.30;99.90;;;5.14;77.27;98095.09;4976034;28;20035;-38
2023/04/03 08:16:22;;;;;;;3.15;2.15;;;6.20;99.90;;;5.24;77.94;98094.19;4977549;28;20149;-38
2023/04/03 08:18:48;;;;;;;5.47;2.88;;;6.20;99.90;;;5.10;78.73;98098.63;4971357;28;20045;-38
2023/04/03 08:21:13;;;;;;;4.78;2.13;;;6.20;99.90;;;5.08;79.96;98102.94;4977467;28;20039;-38
2023/04/03 08:23:41;;;;;;;4.15;2.30;;;6.30;99.90;;;4.84;81.04;98094.31;4975260;28;20056;-38
2023/04/03 08:26:14;;;;;;;3.20;1.88;;;6.20;99.90;;;5.11;77.98;98102.94;4978141;28;20030;-38
2023/04/03 08:28:41;;;;;;;3.75;1.75;;;6.20;99.90;;;5.33;78.98;98103.75;5013842;23;20357;-48
2023/04/03 08:31:10;;;;;;;4.47;1.95;;;6.30;99.90;;;5.50;77.20;98098.41;5014798;28;20051;-49
2023/04/03 08:33:37;;;;;;;7.72;2.10;;;6.40;99.90;;;5.45;76.02;98077.50;5015702;28;20037;-50
2023/04/03 08:36:25;;;;;;;3.38;1.83;;;6.60;99.90;;;5.91;73.24;98100.78;5014258;28;20409;-48
2023/04/03 08:38:51;;;;;;;7.30;1.83;;;6.70;99.90;;;6.01;72.75;98098.09;5015225;28;20122;-49
2023/04/03 08:41:39;;;;;;;10.13;2.20;;;6.90;99.90;;;6.09;73.64;98107.66;5014812;28;20025;-48
2023/04/03 08:44:39;;;;;;;3.75;2.08;;;7.00;99.90;;;5.74;73.88;98102.63;5015585;28;20112;-48
2023/04/03 08:47:21;;;;;;;11.27;2.33;;;7.00;99.90;;;5.83;70.35;98101.69;5017032;28;20024;-49
2023/04/03 08:50:19;;;;;;;8.05;2.13;;;6.90;99.90;;;5.97;72.99;98110.34;5013136;28;20041;-49
2023/04/03 08:52:50;;;;;;;4.95;2.20;;;6.90;99.90;;;5.70;74.91;98095.69;5009084;28;20067;-49
2023/04/03 08:55:33;;;;;;;22.75;3.20;;;6.90;99.90;;;5.81;70.93;98108.69;5014387;28;20544;-49
2023/04/03 08:58:16;;;;;;;62.63;8.25;;;6.80;99.90;;;5.65;74.79;98107.91;5010842;28;20045;-48
2023/04/03 09:01:20;;;;;;;10.27;2.78;;;6.80;99.90;;;5.96;68.87;98119.13;5014719;28;20041;-50
2023/04/03 09:03:46;;;;;;;5.95;2.03;;;7.00;99.90;;;5.97;71.38;98117.34;4990858;28;20065;-50
2023/04/03 09:06:24;;;;;;;4.05;2.15;;;7.00;99.90;;;5.78;72.92;98103.47;5009185;28;20160;-50
2023/04/03 09:09:26;;;;;;;4.03;1.85;;;7.00;99.90;;;5.61;73.49;98114.06;5012760;28;20021;-49
2023/04/03 09:12:27;;;;;;;3.92;2.15;;;6.80;99.90;;;6.00;71.70;98106.88;5012789;28;20655;-47
2023/04/03 09:15:11;;;;;;;3.78;1.83;;;6.90;99.90;;;6.17;68.58;98117.19;5012358;28;20064;-47
2023/04/03 09:18:25;;;;;;;6.13;1.77;;;7.10;99.90;;;6.07;71.74;98108.56;5013861;28;20106;-50
2023/04/03 09:20:57;;;;;;;4.47;2.00;;;7.00;99.90;;;6.14;70.65;98111.97;5013540;28;20069;-50
2023/04/03 09:23:43;;;;;;;6.18;2.05;;;7.10;99.90;;;6.32;67.29;98119.72;5017308;28;20049;-50
2023/04/03 09:26:39;;;;;;;35.00;4.68;;;7.30;99.90;;;6.18;70.44;98111.97;5011600;28;20260;-50
2023/04/03 09:29:07;;;;;;;5.72;2.17;;;7.20;99.90;;;6.01;69.49;98113.81;5016393;28;20114;-49
2023/04/03 09:31:40;;;;;;;7.15;2.40;;;7.10;99.90;;;5.49;70.44;98114.97;5013881;28;20278;-49
2023/04/03 09:34:36;;;;;;;4.15;1.83;;;6.80;99.90;;;5.34;74.49;98122.03;5010845;28;20041;-50
2023/04/03 09:37:08;;;;;;;6.72;2.58;;;6.50;99.90;;;5.31;73.88;98121.16;5018177;28;20116;-48
2023/04/03 09:39:53;;;;;;;3.72;2.03;;;6.40;99.90;;;5.45;71.75;98106.28;5018599;28;20044;-47
2023/04/03 09:42:23;;;;;;;4.68;2.13;;;6.40;99.90;;;5.47;72.47;98112.41;5035478;28;20116;-50
2023/04/03 09:45:02;;;;;;;4.32;1.73;;;6.50;99.90;;;5.62;72.28;98108.81;5016640;28;20030;-49
2023/04/03 09:47:32;;;;;;;4.55;2.03;;;6.70;99.90;;;5.79;67.55;98103.47;5017844;28;20033;-49
2023/04/03 09:50:19;;;;;;;3.17;1.73;;;6.80;99.90;;;5.71;68.46;98113.13;5014867;28;20324;-50
2023/04/03 09:52:48;;;;;;;2.47;1.58;;;6.70;99.90;;;5.68;73.08;98106.16;5014829;28;20169;-47
2023/04/03 09:55:20;;;;;;;4.15;1.73;;;6.70;99.90;;;5.85;66.24;98111.28;5018510;28;20037;-50
2023/04/03 09:57:48;;;;;;;2.95;1.67;;;6.70;99.90;;;5.87;66.99;98103.44;5013620;28;20052;-48
2023/04/03 10:00:29;;;;;;;3.35;1.88;;;6.80;99.90;;;5.64;65.52;98099.22;5009105;28;20152;-49
2023/04/03 10:02:57;;;;;;;9.77;2.10;;;6.80;99.90;;;5.49;67.92;98109.75;5017210;28;20119;-50
2023/04/03 10:05:51;;;;;;;2.92;1.70;;;6.70;99.90;;;5.91;64.37;98103.38;5013369;28;20033;-48
2023/04/03 10:08:16;;;;;;;7.10;2.00;;;6.90;99.90;;;5.96;64.35;98108.63;5016094;28;20041;-49
2023/04/03 10:10:46;;;;;;;16.48;3.03;;;6.90;99.90;;;5.95;63.28;98101.63;5017160;28;20037;-50
2023/04/03 10:13:19;;;;;;;7.32;1.70;;;7.00;99.90;;;6.13;64.01;98102.41;5016602;28;20044;-46
2023/04/03 10:15:56;;;;;;;4.32;1.85;;;7.00;99.90;;;6.29;62.11;98104.88;5015332;28;20030;-50
2023/04/03 10:18:45;;;;;;;25.25;4.03;;;7.20;99.90;;;6.46;61.92;98089.00;5010995;28;20049;-48
2023/04/03 10:21:36;;;;;;;10.15;2.17;;;7.40;99.90;;;6.66;60.55;98094.06;5016581;28;20048;-49
2023/04/03 10:24:14;;;;;;;4.03;1.50;;;7.60;99.90;;;6.82;57.57;98096.50;5019319;28;20820;-51
2023/04/03 10:26:46;;;;;;;3.58;1.40;;;7.80;99.90;;;6.97;57.81;98090.22;5016048;28;20728;-49
2023/04/03 10:29:36;;;;;;;6.50;2.03;;;8.00;99.90;;;6.95;55.43;98095.50;5032681;28;20034;-44
2023/04/03 10:32:29;;;;;;;2.03;1.40;;;8.00;99.90;;;6.92;54.29;98095.53;5020507;28;20175;-47
2023/04/03 10:35:17;;;;;;;4.78;1.50;;;8.00;99.90;;;6.87;55.35;98100.84;5015252;28;20044;-49
2023/04/03 10:37:55;;;;;;;3.38;1.55;;;7.90;99.90;;;6.70;57.50;98092.28;5018730;28;20042;-47
2023/04/03 10:40:32;;;;;;;4.53;1.58;;;7.70;99.90;;;6.54;58.47;98096.78;5021250;28;20116;-48